sensor_id;sensor_type;location;lat;lon;timestamp;P1;durP1;ratioP1;P2;durP2;ratioP2
32788;SDS011;19141;48.980;8.410;2022-11-27T05:22:34;13.60;;;6.25;;
32788;SDS011;19141;48.980;8.410;2022-11-27T05:24:59;5.68;;;3.72;;
32788;SDS011;19141;48.980;8.410;2022-11-27T05:27:24;8.43;;;3.03;;
32788;SDS011;19141;48.980;8.410;2022-11-27T05:29:50;6.50;;;3.55;;
32788;SDS011;19141;48.980;8.410;2022-11-27T05:32:15;4.57;;;2.30;;
32788;SDS011;19141;48.980;8.410;2022-11-27T05:34:41;5.97;;;3.10;;
32788;SDS011;19141;48.980;8.410;2022-11-27T05:37:06;8.65;;;3.35;;
32788;SDS011;19141;48.980;8.410;2022-11-27T05:39:32;6.93;;;2.97;;
32788;SDS011;19141;48.980;8.410;2022-11-27T05:41:57;6.90;;;2.67;;
32788;SDS011;19141;48.980;8.410;2022-11-27T05:44:22;6.55;;;3.38;;
32788;SDS011;19141;48.980;8.410;2022-11-27T05:46:48;6.10;;;3.00;;
32788;SDS011;19141;48.980;8.410;2022-11-27T05:49:14;5.68;;;2.63;;
32788;SDS011;19141;48.980;8.410;2022-11-27T05:51:40;6.63;;;2.88;;
32788;SDS011;19141;48.980;8.410;2022-11-27T05:54:05;6.88;;;3.20;;
32788;SDS011;19141;48.980;8.410;2022-11-27T05:56:30;4.35;;;2.75;;
32788;SDS011;19141;48.980;8.410;2022-11-27T05:58:56;6.57;;;3.53;;
32788;SDS011;19141;48.980;8.410;2022-11-27T06:01:21;7.18;;;2.60;;
32788;SDS011;19141;48.980;8.410;2022-11-27T06:03:47;4.97;;;2.75;;
32788;SDS011;19141;48.980;8.410;2022-11-27T06:06:14;5.72;;;3.22;;
32788;SDS011;19141;48.980;8.410;2022-11-27T06:08:41;4.60;;;3.15;;
32788;SDS011;19141;48.980;8.410;2022-11-27T06:11:11;5.22;;;2.70;;
32788;SDS011;19141;48.980;8.410;2022-11-27T06:13:42;9.10;;;3.42;;
32788;SDS011;19141;48.980;8.410;2022-11-27T06:16:09;5.30;;;2.83;;
32788;SDS011;19141;48.980;8.410;2022-11-27T06:18:40;5.65;;;3.25;;
32788;SDS011;19141;48.980;8.410;2022-11-27T06:21:10;7.32;;;3.20;;
32788;SDS011;19141;48.980;8.410;2022-11-27T06:23:37;4.45;;;3.10;;
32788;SDS011;19141;48.980;8.410;2022-11-27T06:26:20;6.30;;;3.50;;
32788;SDS011;19141;48.980;8.410;2022-11-27T06:28:50;6.35;;;2.45;;
32788;SDS011;19141;48.980;8.410;2022-11-27T06:31:17;8.07;;;3.05;;
32788;SDS011;19141;48.980;8.410;2022-11-27T06:33:47;8.45;;;3.38;;
32788;SDS011;19141;48.980;8.410;2022-11-27T06:36:14;5.18;;;2.42;;
32788;SDS011;19141;48.980;8.410;2022-11-27T06:38:40;9.18;;;3.72;;
32788;SDS011;19141;48.980;8.410;2022-11-27T06:41:10;7.45;;;2.58;;
32788;SDS011;19141;48.980;8.410;2022-11-27T06:43:38;7.90;;;2.95;;
32788;SDS011;19141;48.980;8.410;2022-11-27T06:46:04;3.65;;;2.85;;
32788;SDS011;19141;48.980;8.410;2022-11-27T06:48:32;4.50;;;2.75;;
32788;SDS011;19141;48.980;8.410;2022-11-27T06:51:01;4.20;;;2.45;;
32788;SDS011;19141;48.980;8.410;2022-11-27T06:53:29;3.22;;;1.90;;
32788;SDS011;19141;48.980;8.410;2022-11-27T06:55:55;5.25;;;2.83;;
32788;SDS011;19141;48.980;8.410;2022-11-27T06:58:22;4.20;;;2.33;;
32788;SDS011;19141;48.980;8.410;2022-11-27T07:00:47;5.43;;;2.20;;
32788;SDS011;19141;48.980;8.410;2022-11-27T07:03:13;5.95;;;2.72;;
32788;SDS011;19141;48.980;8.410;2022-11-27T07:05:38;7.30;;;2.92;;
32788;SDS011;19141;48.980;8.410;2022-11-27T07:08:04;2.80;;;1.90;;
32788;SDS011;19141;48.980;8.410;2022-11-27T07:10:32;4.20;;;2.42;;
32788;SDS011;19141;48.980;8.410;2022-11-27T07:12:59;4.90;;;2.60;;
32788;SDS011;19141;48.980;8.410;2022-11-27T07:15:24;6.10;;;2.42;;
32788;SDS011;19141;48.980;8.410;2022-11-27T07:17:50;4.68;;;2.42;;
32788;SDS011;19141;48.980;8.410;2022-11-27T07:20:15;4.82;;;2.25;;
32788;SDS011;19141;48.980;8.410;2022-11-27T07:22:41;4.60;;;1.90;;
32788;SDS011;19141;48.980;8.410;2022-11-27T07:25:06;4.40;;;2.47;;
32788;SDS011;19141;48.980;8.410;2022-11-27T07:27:32;6.70;;;2.83;;
32788;SDS011;19141;48.980;8.410;2022-11-27T07:29:57;4.32;;;2.28;;
32788;SDS011;19141;48.980;8.410;2022-11-27T07:32:23;3.83;;;2.80;;
32788;SDS011;19141;48.980;8.410;2022-11-27T07:34:48;5.45;;;2.45;;
32788;SDS011;19141;48.980;8.410;2022-11-27T07:37:13;5.82;;;2.28;;
32788;SDS011;19141;48.980;8.410;2022-11-27T07:39:39;2.75;;;1.98;;
32788;SDS011;19141;48.980;8.410;2022-11-27T07:42:04;3.45;;;2.08;;
32788;SDS011;19141;48.980;8.410;2022-11-27T07:44:29;6.20;;;2.85;;
32788;SDS011;19141;48.980;8.410;2022-11-27T07:46:55;5.25;;;2.60;;
32788;SDS011;19141;48.980;8.410;2022-11-27T07:49:20;3.08;;;2.25;;
32788;SDS011;19141;48.980;8.410;2022-11-27T07:51:46;5.10;;;2.65;;
32788;SDS011;19141;48.980;8.410;2022-11-27T07:54:11;7.10;;;3.03;;
32788;SDS011;19141;48.980;8.410;2022-11-27T07:56:36;3.75;;;2.05;;
32788;SDS011;19141;48.980;8.410;2022-11-27T07:59:02;4.55;;;2.47;;
32788;SDS011;19141;48.980;8.410;2022-11-27T08:01:27;4.15;;;2.33;;
32788;SDS011;19141;48.980;8.410;2022-11-27T08:03:52;2.85;;;1.92;;
32788;SDS011;19141;48.980;8.410;2022-11-27T08:06:22;2.83;;;1.73;;
32788;SDS011;19141;48.980;8.410;2022-11-27T08:08:49;3.15;;;2.25;;
32788;SDS011;19141;48.980;8.410;2022-11-27T08:11:17;3.92;;;2.28;;
32788;SDS011;19141;48.980;8.410;2022-11-27T08:13:46;3.35;;;2.30;;
32788;SDS011;19141;48.980;8.410;2022-11-27T08:16:13;2.20;;;2.00;;
32788;SDS011;19141;48.980;8.410;2022-11-27T08:18:38;4.15;;;2.42;;
32788;SDS011;19141;48.980;8.410;2022-11-27T08:21:03;2.58;;;2.00;;
32788;SDS011;19141;48.980;8.410;2022-11-27T08:23:29;3.28;;;1.90;;
32788;SDS011;19141;48.980;8.410;2022-11-27T08:25:54;3.60;;;2.75;;
32788;SDS011;19141;48.980;8.410;2022-11-27T08:28:20;4.57;;;2.42;;
32788;SDS011;19141;48.980;8.410;2022-11-27T08:30:45;2.72;;;2.00;;
32788;SDS011;19141;48.980;8.410;2022-11-27T08:33:19;4.53;;;2.13;;
32788;SDS011;19141;48.980;8.410;2022-11-27T08:35:48;6.60;;;2.88;;
32788;SDS011;19141;48.980;8.410;2022-11-27T08:38:13;4.65;;;2.05;;
32788;SDS011;19141;48.980;8.410;2022-11-27T08:40:39;4.03;;;2.60;;
32788;SDS011;19141;48.980;8.410;2022-11-27T08:43:04;4.88;;;2.92;;
32788;SDS011;19141;48.980;8.410;2022-11-27T08:45:30;5.57;;;2.80;;
32788;SDS011;19141;48.980;8.410;2022-11-27T08:47:57;4.20;;;2.78;;
32788;SDS011;19141;48.980;8.410;2022-11-27T08:50:23;5.13;;;2.40;;
32788;SDS011;19141;48.980;8.410;2022-11-27T08:52:48;5.28;;;2.67;;
32788;SDS011;19141;48.980;8.410;2022-11-27T08:55:14;4.18;;;2.40;;
32788;SDS011;19141;48.980;8.410;2022-11-27T08:57:39;3.40;;;2.40;;
32788;SDS011;19141;48.980;8.410;2022-11-27T09:00:05;7.13;;;2.95;;
32788;SDS011;19141;48.980;8.410;2022-11-27T09:02:32;9.02;;;5.13;;
32788;SDS011;19141;48.980;8.410;2022-11-27T09:04:58;6.70;;;4.50;;
32788;SDS011;19141;48.980;8.410;2022-11-27T09:07:26;6.30;;;3.17;;
32788;SDS011;19141;48.980;8.410;2022-11-27T09:09:52;2.95;;;2.17;;
32788;SDS011;19141;48.980;8.410;2022-11-27T09:12:18;4.32;;;2.75;;
32788;SDS011;19141;48.980;8.410;2022-11-27T09:14:43;4.70;;;2.47;;
32788;SDS011;19141;48.980;8.410;2022-11-27T09:17:09;4.40;;;2.50;;
32788;SDS011;19141;48.980;8.410;2022-11-27T09:19:34;3.22;;;2.25;;
32788;SDS011;19141;48.980;8.410;2022-11-27T09:21:59;3.33;;;1.95;;
32788;SDS011;19141;48.980;8.410;2022-11-27T09:24:25;3.28;;;2.22;;
32788;SDS011;19141;48.980;8.410;2022-11-27T09:26:50;4.40;;;2.30;;
32788;SDS011;19141;48.980;8.410;2022-11-27T09:29:16;3.40;;;2.33;;
32788;SDS011;19141;48.980;8.410;2022-11-27T09:31:41;5.72;;;3.28;;
32788;SDS011;19141;48.980;8.410;2022-11-27T09:34:07;3.90;;;2.67;;
32788;SDS011;19141;48.980;8.410;2022-11-27T09:36:32;4.93;;;2.95;;
32788;SDS011;19141;48.980;8.410;2022-11-27T09:38:58;5.43;;;3.13;;
32788;SDS011;19141;48.980;8.410;2022-11-27T09:41:37;6.43;;;2.97;;
32788;SDS011;19141;48.980;8.410;2022-11-27T09:46:54;5.13;;;3.53;;
32788;SDS011;19141;48.980;8.410;2022-11-27T09:49:28;6.18;;;3.58;;
32788;SDS011;19141;48.980;8.410;2022-11-27T09:52:20;6.30;;;4.18;;
32788;SDS011;19141;48.980;8.410;2022-11-27T09:55:05;7.10;;;4.00;;
32788;SDS011;19141;48.980;8.410;2022-11-27T09:57:41;5.60;;;4.22;;
32788;SDS011;19141;48.980;8.410;2022-11-27T10:00:18;6.95;;;4.00;;
32788;SDS011;19141;48.980;8.410;2022-11-27T10:02:44;5.35;;;3.78;;
32788;SDS011;19141;48.980;8.410;2022-11-27T10:05:12;7.88;;;4.78;;
32788;SDS011;19141;48.980;8.410;2022-11-27T10:07:49;7.65;;;4.22;;
32788;SDS011;19141;48.980;8.410;2022-11-27T10:10:37;7.30;;;4.75;;
32788;SDS011;19141;48.980;8.410;2022-11-27T10:15:51;5.85;;;4.18;;
32788;SDS011;19141;48.980;8.410;2022-11-27T10:18:35;7.60;;;4.45;;
32788;SDS011;19141;48.980;8.410;2022-11-27T10:21:10;11.43;;;5.28;;
32788;SDS011;19141;48.980;8.410;2022-11-27T10:24:05;8.02;;;5.10;;
32788;SDS011;19141;48.980;8.410;2022-11-27T10:26:51;8.52;;;5.25;;
32788;SDS011;19141;48.980;8.410;2022-11-27T10:29:34;10.18;;;4.78;;
32788;SDS011;19141;48.980;8.410;2022-11-27T10:32:04;12.75;;;5.22;;
32788;SDS011;19141;48.980;8.410;2022-11-27T10:34:38;12.48;;;4.80;;
32788;SDS011;19141;48.980;8.410;2022-11-27T10:37:10;7.13;;;3.85;;
32788;SDS011;19141;48.980;8.410;2022-11-27T10:39:53;9.75;;;4.30;;
32788;SDS011;19141;48.980;8.410;2022-11-27T10:47:31;9.32;;;4.97;;
32788;SDS011;19141;48.980;8.410;2022-11-27T10:49:57;13.13;;;6.28;;
32788;SDS011;19141;48.980;8.410;2022-11-27T10:52:23;14.15;;;6.70;;
32788;SDS011;19141;48.980;8.410;2022-11-27T10:54:56;13.70;;;5.38;;
32788;SDS011;19141;48.980;8.410;2022-11-27T11:00:23;6.97;;;4.55;;
32788;SDS011;19141;48.980;8.410;2022-11-27T11:02:59;9.05;;;5.15;;
32788;SDS011;19141;48.980;8.410;2022-11-27T11:05:26;10.93;;;5.18;;
32788;SDS011;19141;48.980;8.410;2022-11-27T11:08:00;10.10;;;4.32;;
32788;SDS011;19141;48.980;8.410;2022-11-27T11:10:36;11.40;;;4.75;;
32788;SDS011;19141;48.980;8.410;2022-11-27T11:13:15;10.20;;;4.65;;
32788;SDS011;19141;48.980;8.410;2022-11-27T11:15:47;8.18;;;4.40;;
32788;SDS011;19141;48.980;8.410;2022-11-27T11:18:17;11.20;;;4.13;;
32788;SDS011;19141;48.980;8.410;2022-11-27T11:20:54;12.43;;;4.32;;
32788;SDS011;19141;48.980;8.410;2022-11-27T11:23:26;7.22;;;4.47;;
32788;SDS011;19141;48.980;8.410;2022-11-27T11:28:58;11.65;;;5.25;;
32788;SDS011;19141;48.980;8.410;2022-11-27T11:31:33;12.50;;;5.25;;
32788;SDS011;19141;48.980;8.410;2022-11-27T11:34:03;14.05;;;6.32;;
32788;SDS011;19141;48.980;8.410;2022-11-27T11:36:37;14.15;;;5.90;;
32788;SDS011;19141;48.980;8.410;2022-11-27T11:39:03;13.23;;;5.10;;
32788;SDS011;19141;48.980;8.410;2022-11-27T11:41:38;10.52;;;5.28;;
32788;SDS011;19141;48.980;8.410;2022-11-27T11:44:03;12.75;;;5.88;;
32788;SDS011;19141;48.980;8.410;2022-11-27T11:46:30;9.18;;;5.03;;
32788;SDS011;19141;48.980;8.410;2022-11-27T11:51:28;11.48;;;4.63;;
32788;SDS011;19141;48.980;8.410;2022-11-27T11:54:12;10.32;;;4.78;;
32788;SDS011;19141;48.980;8.410;2022-11-27T11:56:47;7.00;;;4.38;;
32788;SDS011;19141;48.980;8.410;2022-11-27T12:05:03;10.65;;;4.47;;
32788;SDS011;19141;48.980;8.410;2022-11-27T12:07:41;8.98;;;4.68;;
32788;SDS011;19141;48.980;8.410;2022-11-27T12:15:40;10.02;;;4.45;;
32788;SDS011;19141;48.980;8.410;2022-11-27T12:21:00;12.13;;;5.13;;
32788;SDS011;19141;48.980;8.410;2022-11-27T12:23:48;10.38;;;4.13;;
32788;SDS011;19141;48.980;8.410;2022-11-27T12:26:18;8.35;;;4.20;;
32788;SDS011;19141;48.980;8.410;2022-11-27T12:29:11;9.15;;;4.00;;
32788;SDS011;19141;48.980;8.410;2022-11-27T12:42:40;5.28;;;3.50;;
32788;SDS011;19141;48.980;8.410;2022-11-27T12:45:26;5.95;;;3.97;;
32788;SDS011;19141;48.980;8.410;2022-11-27T12:48:04;5.95;;;4.10;;
32788;SDS011;19141;48.980;8.410;2022-11-27T12:50:44;10.23;;;4.25;;
32788;SDS011;19141;48.980;8.410;2022-11-27T12:53:28;10.23;;;4.50;;
32788;SDS011;19141;48.980;8.410;2022-11-27T12:58:43;6.55;;;3.83;;
32788;SDS011;19141;48.980;8.410;2022-11-27T13:01:14;7.68;;;3.72;;
32788;SDS011;19141;48.980;8.410;2022-11-27T13:07:29;7.20;;;4.22;;
32788;SDS011;19141;48.980;8.410;2022-11-27T13:12:25;6.28;;;4.30;;
32788;SDS011;19141;48.980;8.410;2022-11-27T13:15:18;10.35;;;4.57;;
32788;SDS011;19141;48.980;8.410;2022-11-27T13:17:53;6.57;;;3.83;;
32788;SDS011;19141;48.980;8.410;2022-11-27T13:20:28;9.60;;;4.95;;
32788;SDS011;19141;48.980;8.410;2022-11-27T13:22:57;7.82;;;4.35;;
32788;SDS011;19141;48.980;8.410;2022-11-27T13:25:23;7.80;;;4.15;;
32788;SDS011;19141;48.980;8.410;2022-11-27T13:27:50;8.75;;;4.57;;
32788;SDS011;19141;48.980;8.410;2022-11-27T13:30:22;6.00;;;3.65;;
32788;SDS011;19141;48.980;8.410;2022-11-27T13:32:51;9.27;;;4.78;;
32788;SDS011;19141;48.980;8.410;2022-11-27T13:35:26;4.93;;;3.40;;
32788;SDS011;19141;48.980;8.410;2022-11-27T13:41:06;5.78;;;4.15;;
32788;SDS011;19141;48.980;8.410;2022-11-27T13:46:07;13.63;;;5.35;;
32788;SDS011;19141;48.980;8.410;2022-11-27T13:48:46;10.27;;;5.03;;
32788;SDS011;19141;48.980;8.410;2022-11-27T13:51:26;7.35;;;4.13;;
32788;SDS011;19141;48.980;8.410;2022-11-27T13:54:05;9.30;;;4.80;;
32788;SDS011;19141;48.980;8.410;2022-11-27T13:56:35;9.15;;;4.55;;
32788;SDS011;19141;48.980;8.410;2022-11-27T13:59:11;6.68;;;3.60;;
32788;SDS011;19141;48.980;8.410;2022-11-27T14:01:37;8.73;;;4.00;;
32788;SDS011;19141;48.980;8.410;2022-11-27T14:04:07;6.93;;;3.97;;
32788;SDS011;19141;48.980;8.410;2022-11-27T14:06:34;8.80;;;4.35;;
32788;SDS011;19141;48.980;8.410;2022-11-27T14:09:01;8.27;;;4.25;;
32788;SDS011;19141;48.980;8.410;2022-11-27T14:14:11;7.85;;;3.85;;
32788;SDS011;19141;48.980;8.410;2022-11-27T14:16:40;8.00;;;4.10;;
32788;SDS011;19141;48.980;8.410;2022-11-27T14:19:26;6.45;;;3.58;;
32788;SDS011;19141;48.980;8.410;2022-11-27T14:21:54;9.25;;;4.25;;
32788;SDS011;19141;48.980;8.410;2022-11-27T14:24:41;7.43;;;4.25;;
32788;SDS011;19141;48.980;8.410;2022-11-27T14:29:49;8.50;;;3.90;;
32788;SDS011;19141;48.980;8.410;2022-11-27T14:32:15;6.35;;;3.72;;
32788;SDS011;19141;48.980;8.410;2022-11-27T14:34:42;9.50;;;4.45;;
32788;SDS011;19141;48.980;8.410;2022-11-27T14:37:24;8.90;;;4.25;;
32788;SDS011;19141;48.980;8.410;2022-11-27T14:39:51;9.90;;;5.22;;
32788;SDS011;19141;48.980;8.410;2022-11-27T14:42:26;7.53;;;4.30;;
32788;SDS011;19141;48.980;8.410;2022-11-27T14:45:06;8.48;;;4.75;;
32788;SDS011;19141;48.980;8.410;2022-11-27T14:47:37;5.72;;;3.55;;
32788;SDS011;19141;48.980;8.410;2022-11-27T14:50:12;8.63;;;4.13;;
32788;SDS011;19141;48.980;8.410;2022-11-27T14:52:38;6.88;;;4.10;;
32788;SDS011;19141;48.980;8.410;2022-11-27T14:55:16;7.00;;;4.47;;
32788;SDS011;19141;48.980;8.410;2022-11-27T14:57:42;6.85;;;3.90;;
32788;SDS011;19141;48.980;8.410;2022-11-27T15:00:14;7.22;;;3.90;;
32788;SDS011;19141;48.980;8.410;2022-11-27T15:02:40;5.38;;;3.58;;
32788;SDS011;19141;48.980;8.410;2022-11-27T15:05:06;8.18;;;4.07;;
32788;SDS011;19141;48.980;8.410;2022-11-27T15:07:41;7.97;;;4.40;;
32788;SDS011;19141;48.980;8.410;2022-11-27T15:10:15;7.45;;;4.10;;
32788;SDS011;19141;48.980;8.410;2022-11-27T15:12:46;8.38;;;4.70;;
32788;SDS011;19141;48.980;8.410;2022-11-27T15:15:23;6.53;;;4.20;;
32788;SDS011;19141;48.980;8.410;2022-11-27T15:17:54;8.48;;;3.97;;
32788;SDS011;19141;48.980;8.410;2022-11-27T15:20:26;7.35;;;4.57;;
32788;SDS011;19141;48.980;8.410;2022-11-27T15:22:59;6.50;;;4.15;;
32788;SDS011;19141;48.980;8.410;2022-11-27T15:25:31;10.73;;;4.82;;
32788;SDS011;19141;48.980;8.410;2022-11-27T15:27:59;11.93;;;5.25;;
32788;SDS011;19141;48.980;8.410;2022-11-27T15:30:24;6.78;;;4.75;;
32788;SDS011;19141;48.980;8.410;2022-11-27T15:32:50;7.50;;;4.55;;
32788;SDS011;19141;48.980;8.410;2022-11-27T15:35:25;8.45;;;5.05;;
32788;SDS011;19141;48.980;8.410;2022-11-27T15:37:52;12.65;;;6.03;;
32788;SDS011;19141;48.980;8.410;2022-11-27T15:40:30;7.53;;;5.07;;
32788;SDS011;19141;48.980;8.410;2022-11-27T15:43:12;10.52;;;5.43;;
32788;SDS011;19141;48.980;8.410;2022-11-27T15:45:39;8.95;;;4.15;;
32788;SDS011;19141;48.980;8.410;2022-11-27T15:48:17;11.57;;;5.90;;
32788;SDS011;19141;48.980;8.410;2022-11-27T15:50:43;7.88;;;4.47;;
32788;SDS011;19141;48.980;8.410;2022-11-27T15:53:09;7.15;;;4.57;;
32788;SDS011;19141;48.980;8.410;2022-11-27T15:55:35;11.45;;;5.60;;
32788;SDS011;19141;48.980;8.410;2022-11-27T15:58:00;6.88;;;4.63;;
32788;SDS011;19141;48.980;8.410;2022-11-27T16:00:26;9.77;;;5.68;;
32788;SDS011;19141;48.980;8.410;2022-11-27T16:02:51;10.80;;;6.00;;
32788;SDS011;19141;48.980;8.410;2022-11-27T16:05:17;9.55;;;5.68;;
32788;SDS011;19141;48.980;8.410;2022-11-27T16:07:43;10.25;;;4.68;;
32788;SDS011;19141;48.980;8.410;2022-11-27T16:10:09;9.60;;;5.95;;
32788;SDS011;19141;48.980;8.410;2022-11-27T16:12:35;11.00;;;5.45;;
32788;SDS011;19141;48.980;8.410;2022-11-27T16:15:03;15.95;;;6.47;;
32788;SDS011;19141;48.980;8.410;2022-11-27T16:17:29;10.15;;;5.40;;
32788;SDS011;19141;48.980;8.410;2022-11-27T16:19:55;6.60;;;4.95;;
32788;SDS011;19141;48.980;8.410;2022-11-27T16:22:20;7.65;;;5.20;;
32788;SDS011;19141;48.980;8.410;2022-11-27T16:24:46;9.25;;;5.50;;
32788;SDS011;19141;48.980;8.410;2022-11-27T16:27:11;10.07;;;5.15;;
32788;SDS011;19141;48.980;8.410;2022-11-27T16:29:36;8.57;;;5.05;;
32788;SDS011;19141;48.980;8.410;2022-11-27T16:32:02;10.65;;;5.72;;
32788;SDS011;19141;48.980;8.410;2022-11-27T16:34:27;11.45;;;5.90;;
32788;SDS011;19141;48.980;8.410;2022-11-27T16:36:53;9.70;;;5.35;;
32788;SDS011;19141;48.980;8.410;2022-11-27T16:39:19;13.40;;;6.25;;
32788;SDS011;19141;48.980;8.410;2022-11-27T16:41:44;10.98;;;6.32;;
32788;SDS011;19141;48.980;8.410;2022-11-27T16:44:12;8.60;;;5.63;;
32788;SDS011;19141;48.980;8.410;2022-11-27T16:46:39;10.18;;;5.50;;
32788;SDS011;19141;48.980;8.410;2022-11-27T16:49:05;10.95;;;6.03;;
32788;SDS011;19141;48.980;8.410;2022-11-27T16:51:32;12.73;;;6.25;;
32788;SDS011;19141;48.980;8.410;2022-11-27T16:53:59;9.80;;;5.07;;
32788;SDS011;19141;48.980;8.410;2022-11-27T16:56:27;10.73;;;5.28;;
32788;SDS011;19141;48.980;8.410;2022-11-27T16:58:54;10.05;;;5.65;;
32788;SDS011;19141;48.980;8.410;2022-11-27T17:01:23;9.70;;;5.00;;
32788;SDS011;19141;48.980;8.410;2022-11-27T17:03:52;10.02;;;5.55;;
32788;SDS011;19141;48.980;8.410;2022-11-27T17:06:19;10.65;;;5.63;;
32788;SDS011;19141;48.980;8.410;2022-11-27T17:08:56;7.53;;;4.90;;
32788;SDS011;19141;48.980;8.410;2022-11-27T17:11:23;8.80;;;5.20;;
32788;SDS011;19141;48.980;8.410;2022-11-27T17:13:52;9.90;;;5.65;;
32788;SDS011;19141;48.980;8.410;2022-11-27T17:16:21;9.45;;;5.50;;
32788;SDS011;19141;48.980;8.410;2022-11-27T17:18:46;9.82;;;5.22;;
32788;SDS011;19141;48.980;8.410;2022-11-27T17:21:15;9.02;;;5.13;;
32788;SDS011;19141;48.980;8.410;2022-11-27T17:23:43;9.23;;;4.72;;
32788;SDS011;19141;48.980;8.410;2022-11-27T17:26:16;8.57;;;4.90;;
32788;SDS011;19141;48.980;8.410;2022-11-27T17:28:43;10.50;;;5.65;;
32788;SDS011;19141;48.980;8.410;2022-11-27T17:31:14;13.77;;;6.18;;
32788;SDS011;19141;48.980;8.410;2022-11-27T17:33:41;9.18;;;6.30;;
32788;SDS011;19141;48.980;8.410;2022-11-27T17:36:07;11.75;;;6.40;;
32788;SDS011;19141;48.980;8.410;2022-11-27T17:38:33;8.88;;;5.40;;
32788;SDS011;19141;48.980;8.410;2022-11-27T17:40:59;13.02;;;7.35;;
32788;SDS011;19141;48.980;8.410;2022-11-27T17:43:26;10.53;;;6.37;;
32788;SDS011;19141;48.980;8.410;2022-11-27T17:45:54;17.55;;;6.68;;
32788;SDS011;19141;48.980;8.410;2022-11-27T17:48:20;11.50;;;6.20;;
32788;SDS011;19141;48.980;8.410;2022-11-27T17:50:47;9.30;;;6.88;;
32788;SDS011;19141;48.980;8.410;2022-11-27T17:53:12;7.95;;;5.70;;
32788;SDS011;19141;48.980;8.410;2022-11-27T17:55:38;11.90;;;6.75;;
32788;SDS011;19141;48.980;8.410;2022-11-27T17:58:04;10.98;;;6.63;;
32788;SDS011;19141;48.980;8.410;2022-11-27T18:00:31;14.32;;;6.72;;
32788;SDS011;19141;48.980;8.410;2022-11-27T18:02:58;9.13;;;6.28;;
32788;SDS011;19141;48.980;8.410;2022-11-27T18:05:24;13.15;;;7.47;;
32788;SDS011;19141;48.980;8.410;2022-11-27T18:07:49;13.45;;;8.25;;
32788;SDS011;19141;48.980;8.410;2022-11-27T18:10:16;9.82;;;6.32;;
32788;SDS011;19141;48.980;8.410;2022-11-27T18:12:42;12.38;;;7.35;;
32788;SDS011;19141;48.980;8.410;2022-11-27T18:15:08;9.55;;;6.22;;
32788;SDS011;19141;48.980;8.410;2022-11-27T18:17:34;14.45;;;6.10;;
32788;SDS011;19141;48.980;8.410;2022-11-27T18:20:00;9.15;;;4.85;;
32788;SDS011;19141;48.980;8.410;2022-11-27T18:22:25;10.90;;;5.88;;
32788;SDS011;19141;48.980;8.410;2022-11-27T18:24:51;8.45;;;5.25;;
32788;SDS011;19141;48.980;8.410;2022-11-27T18:27:17;11.30;;;6.18;;
32788;SDS011;19141;48.980;8.410;2022-11-27T18:29:42;11.77;;;5.47;;
32788;SDS011;19141;48.980;8.410;2022-11-27T18:32:08;10.23;;;5.93;;
32788;SDS011;19141;48.980;8.410;2022-11-27T18:34:35;9.73;;;5.55;;
32788;SDS011;19141;48.980;8.410;2022-11-27T18:37:00;11.07;;;5.57;;
32788;SDS011;19141;48.980;8.410;2022-11-27T18:39:26;10.55;;;6.40;;
32788;SDS011;19141;48.980;8.410;2022-11-27T18:41:52;9.77;;;5.82;;
32788;SDS011;19141;48.980;8.410;2022-11-27T18:44:17;10.40;;;6.00;;
32788;SDS011;19141;48.980;8.410;2022-11-27T18:46:43;13.65;;;6.93;;
32788;SDS011;19141;48.980;8.410;2022-11-27T18:49:08;11.43;;;5.75;;
32788;SDS011;19141;48.980;8.410;2022-11-27T18:51:33;8.50;;;5.22;;
32788;SDS011;19141;48.980;8.410;2022-11-27T18:54:00;9.68;;;5.38;;
32788;SDS011;19141;48.980;8.410;2022-11-27T18:56:27;10.52;;;6.65;;
32788;SDS011;19141;48.980;8.410;2022-11-27T18:58:59;12.07;;;5.93;;
32788;SDS011;19141;48.980;8.410;2022-11-27T19:01:26;15.25;;;6.80;;
32788;SDS011;19141;48.980;8.410;2022-11-27T19:03:53;12.30;;;6.63;;
32788;SDS011;19141;48.980;8.410;2022-11-27T19:06:20;10.95;;;6.13;;
32788;SDS011;19141;48.980;8.410;2022-11-27T19:08:49;15.98;;;7.22;;
32788;SDS011;19141;48.980;8.410;2022-11-27T19:11:16;12.75;;;6.03;;
32788;SDS011;19141;48.980;8.410;2022-11-27T19:13:44;13.63;;;6.85;;
32788;SDS011;19141;48.980;8.410;2022-11-27T19:16:11;11.50;;;6.60;;
32788;SDS011;19141;48.980;8.410;2022-11-27T19:18:39;11.13;;;5.72;;
32788;SDS011;19141;48.980;8.410;2022-11-27T19:21:06;13.65;;;6.47;;
32788;SDS011;19141;48.980;8.410;2022-11-27T19:23:33;16.40;;;6.55;;
32788;SDS011;19141;48.980;8.410;2022-11-27T19:26:02;11.10;;;5.68;;
32788;SDS011;19141;48.980;8.410;2022-11-27T19:28:33;12.02;;;6.70;;
32788;SDS011;19141;48.980;8.410;2022-11-27T19:31:01;11.80;;;6.40;;
32788;SDS011;19141;48.980;8.410;2022-11-27T19:33:28;12.65;;;6.55;;
32788;SDS011;19141;48.980;8.410;2022-11-27T19:35:57;8.55;;;5.57;;
32788;SDS011;19141;48.980;8.410;2022-11-27T19:38:27;13.80;;;7.30;;
32788;SDS011;19141;48.980;8.410;2022-11-27T19:40:53;11.50;;;6.43;;
32788;SDS011;19141;48.980;8.410;2022-11-27T19:43:18;11.45;;;7.53;;
32788;SDS011;19141;48.980;8.410;2022-11-27T19:45:44;11.25;;;6.95;;
32788;SDS011;19141;48.980;8.410;2022-11-27T19:48:10;14.48;;;7.63;;
32788;SDS011;19141;48.980;8.410;2022-11-27T19:50:36;14.35;;;8.27;;
32788;SDS011;19141;48.980;8.410;2022-11-27T19:53:01;12.15;;;6.78;;
32788;SDS011;19141;48.980;8.410;2022-11-27T19:55:30;14.38;;;7.40;;
32788;SDS011;19141;48.980;8.410;2022-11-27T19:57:56;12.35;;;6.88;;
32788;SDS011;19141;48.980;8.410;2022-11-27T20:00:22;9.60;;;6.70;;
32788;SDS011;19141;48.980;8.410;2022-11-27T20:02:48;12.50;;;6.57;;
32788;SDS011;19141;48.980;8.410;2022-11-27T20:05:14;14.43;;;7.35;;
32788;SDS011;19141;48.980;8.410;2022-11-27T20:07:40;12.40;;;7.07;;
32788;SDS011;19141;48.980;8.410;2022-11-27T20:10:06;13.68;;;7.70;;
32788;SDS011;19141;48.980;8.410;2022-11-27T20:12:31;12.60;;;6.63;;
32788;SDS011;19141;48.980;8.410;2022-11-27T20:15:02;15.30;;;7.95;;
32788;SDS011;19141;48.980;8.410;2022-11-27T20:17:29;14.15;;;7.15;;
32788;SDS011;19141;48.980;8.410;2022-11-27T20:19:54;14.60;;;7.82;;
32788;SDS011;19141;48.980;8.410;2022-11-27T20:22:21;18.25;;;8.40;;
32788;SDS011;19141;48.980;8.410;2022-11-27T20:24:46;11.57;;;7.57;;
32788;SDS011;19141;48.980;8.410;2022-11-27T20:27:12;13.77;;;7.50;;
32788;SDS011;19141;48.980;8.410;2022-11-27T20:29:37;14.82;;;8.35;;
32788;SDS011;19141;48.980;8.410;2022-11-27T20:32:03;17.27;;;8.02;;
32788;SDS011;19141;48.980;8.410;2022-11-27T20:34:28;13.40;;;8.20;;
32788;SDS011;19141;48.980;8.410;2022-11-27T20:36:54;15.55;;;8.60;;
32788;SDS011;19141;48.980;8.410;2022-11-27T20:39:19;14.32;;;7.55;;
32788;SDS011;19141;48.980;8.410;2022-11-27T20:41:45;14.50;;;8.15;;
32788;SDS011;19141;48.980;8.410;2022-11-27T20:44:10;18.00;;;7.57;;
32788;SDS011;19141;48.980;8.410;2022-11-27T20:46:36;15.32;;;6.97;;
32788;SDS011;19141;48.980;8.410;2022-11-27T20:49:02;13.07;;;7.63;;
32788;SDS011;19141;48.980;8.410;2022-11-27T20:51:29;12.82;;;7.90;;
32788;SDS011;19141;48.980;8.410;2022-11-27T20:53:57;19.25;;;8.98;;
32788;SDS011;19141;48.980;8.410;2022-11-27T20:56:28;14.50;;;7.70;;
32788;SDS011;19141;48.980;8.410;2022-11-27T20:58:56;16.60;;;8.43;;
32788;SDS011;19141;48.980;8.410;2022-11-27T21:01:32;14.85;;;8.57;;
32788;SDS011;19141;48.980;8.410;2022-11-27T21:04:01;16.60;;;8.38;;
32788;SDS011;19141;48.980;8.410;2022-11-27T21:06:33;15.40;;;9.07;;
32788;SDS011;19141;48.980;8.410;2022-11-27T21:09:02;16.88;;;9.55;;
32788;SDS011;19141;48.980;8.410;2022-11-27T21:11:30;15.80;;;8.88;;
32788;SDS011;19141;48.980;8.410;2022-11-27T21:13:57;16.85;;;9.27;;
32788;SDS011;19141;48.980;8.410;2022-11-27T21:16:24;16.65;;;8.82;;
32788;SDS011;19141;48.980;8.410;2022-11-27T21:18:53;17.23;;;7.80;;